Time;durP1;ratioP1;P1;durP2;ratioP2;P2;SDS_P1;SDS_P2;PMS_P1;PMS_P2;Temp;Humidity;BMP_temperature;BMP_pressure;BME280_temperature;BME280_humidity;BME280_pressure;Samples;Min_cycle;Max_cycle;Signal;HPM_P1;HPM_P2
2022/06/17 00:00:57;;;;;;;5.03;2.40;;;18.50;74.40;;;;;;4995010;28;20030;-72
2022/06/17 00:03:25;;;;;;;3.53;2.40;;;18.50;74.30;;;;;;4992718;28;20485;-72
2022/06/17 00:05:52;;;;;;;3.10;1.98;;;18.40;74.60;;;;;;4995014;28;20026;-73
2022/06/17 00:08:29;;;;;;;3.38;2.20;;;18.40;74.70;;;;;;4995718;28;20053;-73
2022/06/17 00:10:55;;;;;;;3.70;2.33;;;18.40;74.70;;;;;;4987010;28;20032;-72
2022/06/17 00:13:22;;;;;;;6.05;2.45;;;18.40;74.40;;;;;;4989409;28;20033;-72
2022/06/17 00:15:48;;;;;;;5.15;2.05;;;18.40;74.50;;;;;;4989648;28;20107;-72
2022/06/17 00:18:15;;;;;;;5.18;2.22;;;18.30;74.70;;;;;;4992299;28;20061;-73
2022/06/17 00:20:42;;;;;;;3.17;2.30;;;18.30;74.60;;;;;;4993198;28;20102;-72
2022/06/17 00:23:17;;;;;;;3.75;2.60;;;18.40;74.90;;;;;;4992361;28;20419;-73
2022/06/17 00:25:45;;;;;;;4.00;2.10;;;18.30;74.80;;;;;;4991427;28;20030;-72
2022/06/17 00:28:20;;;;;;;4.82;2.05;;;18.30;74.40;;;;;;4990811;28;20447;-71
2022/06/17 00:30:47;;;;;;;2.63;1.90;;;18.30;74.50;;;;;;4993459;28;20112;-73
2022/06/17 00:33:14;;;;;;;3.20;1.90;;;18.20;74.50;;;;;;4984746;28;20055;-72
2022/06/17 00:35:44;;;;;;;4.90;1.92;;;18.20;74.70;;;;;;4992399;28;20029;-73
2022/06/17 00:38:14;;;;;;;3.30;2.05;;;18.20;74.90;;;;;;5000261;28;20813;-73
2022/06/17 00:40:40;;;;;;;2.90;2.08;;;18.20;75.00;;;;;;4996998;28;20030;-72
2022/06/17 00:43:24;;;;;;;4.70;2.63;;;18.10;74.80;;;;;;4991690;28;20600;-73
2022/06/17 00:45:53;;;;;;;;;;;18.10;74.90;;;;;;4984686;28;20109;-72
2022/06/17 00:48:23;;;;;;;3.25;2.50;;;18.00;75.10;;;;;;4999939;28;19968;-72
2022/06/17 00:51:02;;;;;;;3.22;2.05;;;18.00;75.30;;;;;;4988594;28;20130;-72
2022/06/17 00:53:34;;;;;;;4.65;2.63;;;17.90;75.60;;;;;;4987144;28;20030;-71
2022/06/17 00:56:08;;;;;;;2.33;2.10;;;17.90;75.70;;;;;;4995706;28;20041;-69
2022/06/17 00:58:53;;;;;;;2.88;1.92;;;17.90;75.70;;;;;;4988273;28;20108;-73
2022/06/17 01:01:20;;;;;;;2.78;2.38;;;17.90;75.70;;;;;;4985443;28;20117;-73
2022/06/17 01:03:52;;;;;;;4.43;2.38;;;17.80;76.10;;;;;;4994292;28;20360;-73
2022/06/17 01:06:21;;;;;;;6.05;2.30;;;17.80;76.20;;;;;;4988944;28;20027;-71
2022/06/17 01:12:03;;;;;;;2.88;2.10;;;17.70;76.40;;;;;;4989853;28;20044;-72
2022/06/17 01:14:29;;;;;;;5.43;2.35;;;17.70;76.60;;;;;;4987461;28;20057;-73
2022/06/17 01:16:57;;;;;;;3.60;1.88;;;17.70;76.70;;;;;;4991317;28;20037;-72
2022/06/17 01:19:41;;;;;;;4.38;2.13;;;17.70;77.00;;;;;;4987549;28;20026;-71
2022/06/17 01:22:28;;;;;;;2.63;1.85;;;17.60;76.90;;;;;;4995638;28;20483;-73
2022/06/17 01:24:57;;;;;;;5.05;2.22;;;17.60;77.40;;;;;;4987561;28;20030;-73
2022/06/17 01:27:26;;;;;;;2.70;2.20;;;17.50;77.00;;;;;;4990900;28;20035;-72
2022/06/17 01:29:53;;;;;;;5.80;2.00;;;17.50;77.40;;;;;;4991047;28;20053;-73
2022/06/17 01:32:23;;;;;;;3.88;2.15;;;17.50;77.20;;;;;;4989476;28;20026;-73
2022/06/17 01:34:49;;;;;;;3.28;2.22;;;17.50;77.30;;;;;;4988105;28;20034;-73
2022/06/17 01:37:16;;;;;;;4.82;2.13;;;17.40;77.60;;;;;;4994930;28;20030;-72
2022/06/17 01:39:43;;;;;;;4.93;2.30;;;17.40;77.60;;;;;;4989536;28;20136;-71
2022/06/17 01:42:10;;;;;;;5.13;1.83;;;17.40;77.50;;;;;;4994086;28;20114;-72
2022/06/17 01:44:39;;;;;;;2.97;1.92;;;17.30;77.60;;;;;;4989514;28;20511;-71
2022/06/17 01:47:19;;;;;;;4.70;2.92;;;17.30;77.80;;;;;;4988072;28;20475;-72
2022/06/17 01:49:53;;;;;;;2.58;2.20;;;17.30;78.00;;;;;;4990949;28;20038;-75
2022/06/17 01:52:27;;;;;;;3.10;2.22;;;17.20;78.50;;;;;;4991465;28;20030;-72
2022/06/17 01:55:07;;;;;;;3.05;2.00;;;17.20;78.70;;;;;;4987825;28;20038;-68
2022/06/17 01:57:41;;;;;;;4.93;2.22;;;17.10;79.60;;;;;;4988182;28;20403;-71
2022/06/17 02:00:25;;;;;;;5.05;2.20;;;17.10;79.00;;;;;;4986360;28;20027;-71
2022/06/17 02:02:58;;;;;;;3.65;1.98;;;17.00;79.40;;;;;;4989038;28;20077;-70
2022/06/17 02:05:26;;;;;;;4.40;2.33;;;17.00;79.50;;;;;;4986499;28;20092;-73
2022/06/17 02:07:55;;;;;;;10.30;2.47;;;16.90;79.80;;;;;;4997286;28;20266;-73
2022/06/17 02:10:32;;;;;;;5.95;2.10;;;16.90;79.70;;;;;;4993551;28;20083;-73
2022/06/17 02:13:01;;;;;;;4.43;2.45;;;16.90;79.70;;;;;;4991087;28;20084;-73
2022/06/17 02:15:26;;;;;;;3.58;2.63;;;16.80;80.30;;;;;;4986280;28;20504;-71
2022/06/17 02:17:53;;;;;;;3.58;1.80;;;16.80;80.00;;;;;;4993481;28;20117;-73
2022/06/17 02:20:20;;;;;;;3.47;2.30;;;16.80;80.70;;;;;;4989937;28;20479;-73
2022/06/17 02:22:46;;;;;;;4.10;1.95;;;16.70;81.40;;;;;;4989272;28;20033;-72
2022/06/17 02:25:20;;;;;;;2.78;2.05;;;16.70;82.00;;;;;;4990764;28;20037;-73
2022/06/17 02:27:50;;;;;;;3.95;2.03;;;16.70;81.90;;;;;;4987439;28;20034;-72
2022/06/17 02:30:17;;;;;;;2.67;2.08;;;16.70;82.00;;;;;;4988071;28;20030;-73
2022/06/17 02:32:44;;;;;;;3.97;2.13;;;16.60;81.60;;;;;;4998327;28;20054;-74
2022/06/17 02:35:25;;;;;;;5.47;1.80;;;16.60;81.00;;;;;;4994363;28;20027;-72
2022/06/17 02:37:52;;;;;;;4.50;2.38;;;16.50;81.40;;;;;;4994692;28;20038;-72
2022/06/17 02:40:37;;;;;;;3.60;2.25;;;16.50;81.70;;;;;;4989625;28;20026;-72
2022/06/17 02:43:14;;;;;;;3.03;2.30;;;16.50;81.70;;;;;;5003867;28;20114;-72
2022/06/17 02:45:44;;;;;;;5.72;2.53;;;16.40;82.20;;;;;;4991263;28;20026;-72
2022/06/17 02:48:24;;;;;;;3.05;2.17;;;16.50;82.20;;;;;;4992421;28;20510;-73
2022/06/17 02:50:53;;;;;;;2.78;2.08;;;16.40;82.00;;;;;;4991587;28;20022;-72
2022/06/17 02:53:33;;;;;;;5.60;2.20;;;16.40;82.30;;;;;;4992405;28;20038;-72
2022/06/17 02:56:03;;;;;;;3.10;2.17;;;16.40;82.60;;;;;;4991437;28;20042;-71
2022/06/17 02:58:38;;;;;;;3.60;2.53;;;16.40;83.40;;;;;;4992444;28;20093;-70
2022/06/17 03:01:14;;;;;;;3.40;2.35;;;16.40;84.20;;;;;;4993722;28;20064;-71
2022/06/17 03:03:40;;;;;;;2.85;2.00;;;16.40;83.70;;;;;;4991166;28;20566;-73
2022/06/17 03:06:09;;;;;;;3.15;2.08;;;16.40;82.60;;;;;;4995080;28;20101;-72
2022/06/17 03:08:38;;;;;;;3.40;2.60;;;16.40;82.00;;;;;;4987966;28;20030;-73
2022/06/17 03:11:04;;;;;;;3.17;2.28;;;16.40;82.00;;;;;;5001214;28;20514;-73
2022/06/17 03:14:04;;;;;;;4.45;2.40;;;16.30;81.90;;;;;;4992671;28;20105;-72
2022/06/17 03:16:32;;;;;;;3.63;2.58;;;16.30;82.20;;;;;;4973719;28;20125;-73
2022/06/17 03:18:58;;;;;;;3.75;2.33;;;16.20;82.70;;;;;;4989516;28;20049;-72
2022/06/17 03:21:24;;;;;;;4.72;2.33;;;16.10;82.80;;;;;;4998805;28;20439;-73
2022/06/17 03:24:11;;;;;;;7.28;3.15;;;16.10;83.00;;;;;;4994850;28;20113;-72
2022/06/17 03:26:44;;;;;;;4.18;2.05;;;16.10;83.10;;;;;;4992858;28;20032;-73
2022/06/17 03:29:12;;;;;;;4.32;2.70;;;16.10;83.20;;;;;;4995982;28;20038;-70
2022/06/17 03:31:45;;;;;;;4.75;2.40;;;16.10;83.30;;;;;;4990724;28;20026;-71
2022/06/17 03:34:27;;;;;;;3.65;2.30;;;16.00;83.50;;;;;;4992174;28;20470;-72
2022/06/17 03:37:00;;;;;;;3.75;2.63;;;16.00;83.50;;;;;;4987126;28;20042;-73
2022/06/17 03:39:59;;;;;;;3.72;2.42;;;15.90;83.60;;;;;;4994343;28;20050;-71
2022/06/17 03:42:54;;;;;;;3.97;2.50;;;15.90;84.40;;;;;;4993710;28;20909;-73
2022/06/17 03:45:28;;;;;;;2.53;2.10;;;16.00;83.90;;;;;;4990721;28;20118;-73
2022/06/17 03:48:08;;;;;;;5.25;2.47;;;16.00;83.70;;;;;;4993232;28;20030;-73
2022/06/17 03:50:37;;;;;;;3.58;2.47;;;16.00;83.40;;;;;;4992850;28;20487;-73
2022/06/17 03:53:24;;;;;;;4.95;2.80;;;16.00;83.30;;;;;;4990267;28;20022;-73
2022/06/17 03:55:53;;;;;;;3.35;2.38;;;16.00;83.20;;;;;;5004885;28;20388;-73
2022/06/17 03:58:20;;;;;;;4.45;2.40;;;16.00;83.60;;;;;;4996656;28;20026;-73
2022/06/17 04:00:55;;;;;;;3.35;2.55;;;16.00;83.60;;;;;;4991583;28;20019;-71
2022/06/17 04:03:24;;;;;;;4.30;2.50;;;16.10;83.50;;;;;;4991144;28;20025;-71
2022/06/17 04:05:58;;;;;;;4.07;2.20;;;16.10;83.70;;;;;;4988506;28;20122;-72
2022/06/17 04:08:23;;;;;;;2.92;2.45;;;16.20;83.60;;;;;;4994166;28;20538;-74
2022/06/17 04:10:49;;;;;;;4.57;2.40;;;16.20;83.60;;;;;;4994760;28;20030;-73
2022/06/17 04:13:18;;;;;;;6.20;3.00;;;16.10;83.60;;;;;;4991675;28;20066;-73
2022/06/17 04:15:53;;;;;;;4.32;2.65;;;16.10;84.10;;;;;;4990825;28;20022;-73
2022/06/17 04:18:19;;;;;;;5.43;2.42;;;16.10;84.40;;;;;;4994591;28;20026;-73
2022/06/17 04:20:52;;;;;;;4.30;2.47;;;16.10;84.50;;;;;;4992621;28;20104;-73
2022/06/17 04:23:28;;;;;;;5.40;3.03;;;16.10;84.40;;;;;;4993911;28;20026;-71
2022/06/17 04:25:56;;;;;;;4.60;2.75;;;16.20;84.40;;;;;;4987405;28;20026;-74
2022/06/17 04:28:34;;;;;;;8.80;3.05;;;16.30;84.30;;;;;;4994610;28;20093;-73
2022/06/17 04:31:06;;;;;;;5.05;2.75;;;16.40;84.10;;;;;;4994787;28;20039;-72
2022/06/17 04:34:13;;;;;;;10.13;2.80;;;16.70;84.00;;;;;;4992599;28;20027;-73
2022/06/17 04:36:52;;;;;;;4.20;2.80;;;17.10;82.70;;;;;;4985769;28;20132;-73
2022/06/17 04:39:26;;;;;;;7.45;3.28;;;17.20;81.80;;;;;;4989898;28;20039;-72
2022/06/17 04:41:55;;;;;;;7.00;2.92;;;17.40;81.50;;;;;;4994952;28;20051;-73
2022/06/17 04:44:21;;;;;;;5.43;2.78;;;17.40;81.30;;;;;;4989218;28;20026;-73
2022/06/17 04:47:00;;;;;;;7.28;3.08;;;17.40;81.70;;;;;;4991291;28;20085;-70
2022/06/17 04:49:30;;;;;;;3.83;2.40;;;17.40;82.00;;;;;;4988144;28;20037;-71
2022/06/17 04:52:06;;;;;;;4.38;2.70;;;17.50;81.90;;;;;;4982015;28;20046;-74
2022/06/17 04:57:06;;;;;;;4.78;3.03;;;17.50;81.80;;;;;;4983681;28;20054;-74
2022/06/17 04:59:37;;;;;;;6.47;3.03;;;17.50;81.30;;;;;;4988030;28;20034;-69
2022/06/17 05:02:07;;;;;;;4.25;2.53;;;17.50;81.60;;;;;;4991245;28;20019;-69
2022/06/17 05:04:33;;;;;;;7.43;2.83;;;17.50;81.30;;;;;;4987717;28;20120;-73
2022/06/17 05:06:58;;;;;;;5.10;2.90;;;17.60;81.40;;;;;;4963161;28;20626;-72
2022/06/17 05:10:13;;;;;;;6.13;2.85;;;17.60;81.30;;;;;;4950493;28;20027;-77
2022/06/17 05:12:44;;;;;;;4.07;2.60;;;17.80;81.00;;;;;;4954735;28;20038;-78
2022/06/17 05:15:15;;;;;;;4.00;2.63;;;17.90;80.30;;;;;;4965657;28;20066;-74
2022/06/17 05:17:41;;;;;;;5.68;2.42;;;17.90;80.10;;;;;;4964619;28;20448;-74
2022/06/17 05:20:19;;;;;;;3.42;2.28;;;18.00;80.10;;;;;;4965350;28;20066;-74
2022/06/17 05:22:47;;;;;;;3.90;2.45;;;18.10;79.70;;;;;;4956296;28;20066;-74
2022/06/17 05:25:22;;;;;;;4.03;2.40;;;18.30;79.10;;;;;;4955321;28;20023;-75
2022/06/17 05:27:48;;;;;;;6.68;2.70;;;18.40;78.60;;;;;;4964517;28;20033;-74
2022/06/17 05:30:15;;;;;;;6.03;2.70;;;18.50;78.10;;;;;;4963049;28;20436;-75
2022/06/17 05:32:46;;;;;;;5.68;2.75;;;18.60;78.00;;;;;;4976525;28;20022;-75
2022/06/17 05:35:12;;;;;;;5.45;2.78;;;18.70;77.80;;;;;;4974462;28;20026;-75
2022/06/17 05:37:38;;;;;;;9.32;2.83;;;18.80;77.80;;;;;;4971916;28;20022;-75
2022/06/17 05:40:05;;;;;;;4.72;2.50;;;19.00;77.70;;;;;;4957113;28;20033;-74
2022/06/17 05:42:31;;;;;;;5.10;2.78;;;19.10;77.40;;;;;;4969284;28;20050;-74
2022/06/17 05:44:57;;;;;;;7.85;2.78;;;19.20;77.00;;;;;;4964516;28;20153;-75
2022/06/17 05:47:22;;;;;;;4.82;2.50;;;19.40;76.70;;;;;;4959104;28;20019;-74
2022/06/17 05:49:48;;;;;;;4.50;2.28;;;19.60;75.40;;;;;;4965194;28;20023;-75
2022/06/17 05:52:15;;;;;;;4.10;2.50;;;19.60;74.70;;;;;;4961362;28;20031;-77
2022/06/17 05:54:40;;;;;;;3.30;2.15;;;19.80;74.30;;;;;;4964885;28;20027;-77
2022/06/17 05:57:06;;;;;;;4.90;2.53;;;19.90;73.60;;;;;;4964388;28;20057;-77
2022/06/17 05:59:32;;;;;;;3.30;2.78;;;20.10;73.50;;;;;;4963687;28;20037;-77
2022/06/17 06:01:58;;;;;;;4.68;1.90;;;20.20;73.30;;;;;;4954930;28;20072;-77
2022/06/17 06:04:26;;;;;;;10.75;2.88;;;20.30;73.10;;;;;;4965514;28;20019;-77
2022/06/17 06:06:51;;;;;;;4.00;2.10;;;20.50;72.20;;;;;;4966853;28;20065;-77
2022/06/17 06:09:17;;;;;;;2.80;2.03;;;20.50;71.50;;;;;;4971229;28;20542;-76
2022/06/17 06:11:43;;;;;;;3.60;1.95;;;20.70;70.80;;;;;;4965243;28;20394;-75
2022/06/17 06:14:09;;;;;;;5.45;2.10;;;20.80;70.80;;;;;;4970943;28;20034;-76
2022/06/17 06:16:34;;;;;;;3.28;2.00;;;20.90;70.60;;;;;;4962938;28;20035;-76
2022/06/17 06:19:00;;;;;;;3.95;2.42;;;21.00;70.00;;;;;;4971486;28;20031;-76
2022/06/17 06:21:26;;;;;;;3.72;2.22;;;21.00;69.40;;;;;;4970737;28;20075;-76
2022/06/17 06:23:55;;;;;;;16.05;2.70;;;21.00;69.40;;;;;;4969452;28;20031;-77
2022/06/17 06:26:22;;;;;;;6.13;2.05;;;21.10;69.10;;;;;;4970764;28;20298;-76
2022/06/17 06:28:47;;;;;;;3.45;2.15;;;21.10;66.90;;;;;;4965624;28;20058;-76
2022/06/17 06:31:46;;;;;;;5.95;2.45;;;21.00;67.80;;;;;;4966943;28;20100;-76
2022/06/17 06:34:13;;;;;;;4.45;2.17;;;21.00;68.20;;;;;;4934886;28;20042;-77
2022/06/17 06:36:38;;;;;;;4.07;2.30;;;21.10;68.20;;;;;;4975889;28;20062;-77
2022/06/17 06:39:04;;;;;;;4.03;2.10;;;21.10;68.60;;;;;;4968923;28;20460;-77
2022/06/17 06:41:30;;;;;;;4.10;2.10;;;21.20;68.70;;;;;;4967585;28;20022;-76
2022/06/17 06:43:56;;;;;;;2.97;2.20;;;21.40;68.60;;;;;;4971192;28;20101;-76
2022/06/17 06:46:24;;;;;;;4.00;2.25;;;21.50;68.20;;;;;;4967289;28;20113;-76
2022/06/17 06:48:50;;;;;;;3.28;2.28;;;21.60;68.00;;;;;;4970544;28;20027;-76
2022/06/17 06:51:16;;;;;;;9.30;2.45;;;21.70;68.10;;;;;;4970841;28;20046;-76
2022/06/17 06:53:42;;;;;;;5.82;2.38;;;21.70;68.10;;;;;;4969498;28;21430;-76
2022/06/17 06:56:07;;;;;;;5.05;2.58;;;21.70;68.40;;;;;;4976373;28;20588;-77
2022/06/17 06:58:33;;;;;;;3.60;2.70;;;21.70;68.20;;;;;;4973396;28;20451;-76
2022/06/17 07:00:59;;;;;;;4.13;2.50;;;21.70;68.50;;;;;;4962003;28;20035;-77
2022/06/17 07:03:27;;;;;;;3.53;2.33;;;21.70;68.40;;;;;;4965527;28;20617;-75
2022/06/17 07:05:55;;;;;;;4.47;2.70;;;21.80;68.30;;;;;;4974613;28;20050;-76
2022/06/17 07:08:24;;;;;;;5.18;2.25;;;21.90;68.00;;;;;;4963028;28;20086;-75
2022/06/17 07:10:52;;;;;;;3.58;2.33;;;21.90;69.20;;;;;;4964307;28;20085;-76
2022/06/17 07:13:21;;;;;;;3.58;2.28;;;21.90;68.70;;;;;;4964478;28;20488;-75
2022/06/17 07:15:47;;;;;;;4.13;2.63;;;21.90;68.10;;;;;;4965222;28;20026;-76
2022/06/17 07:18:23;;;;;;;4.28;2.40;;;21.90;68.30;;;;;;4967482;28;20771;-75
2022/06/17 07:20:55;;;;;;;4.63;2.95;;;21.80;68.10;;;;;;4957856;28;20109;-75
2022/06/17 07:23:24;;;;;;;3.85;2.67;;;21.70;68.10;;;;;;4965989;28;20031;-76
2022/06/17 07:25:51;;;;;;;6.57;2.20;;;21.60;68.70;;;;;;4959022;28;20039;-75
2022/06/17 07:28:20;;;;;;;3.53;2.20;;;21.60;69.10;;;;;;4967806;28;20058;-76
2022/06/17 07:30:48;;;;;;;3.65;2.33;;;21.50;69.10;;;;;;4961502;28;20116;-76
2022/06/17 07:33:15;;;;;;;2.83;2.15;;;21.60;69.30;;;;;;4960587;28;20535;-76
2022/06/17 07:35:42;;;;;;;5.03;2.78;;;21.60;69.40;;;;;;4991893;28;20030;-76
2022/06/17 07:40:57;;;;;;;4.20;2.58;;;21.70;68.60;;;;;;4973577;28;20049;-76
2022/06/17 07:43:23;;;;;;;4.28;2.28;;;21.70;67.90;;;;;;4964645;28;20024;-75
2022/06/17 07:45:49;;;;;;;3.22;2.72;;;21.70;68.20;;;;;;4968748;28;20042;-75
2022/06/17 07:48:15;;;;;;;6.80;2.72;;;21.70;68.50;;;;;;4968593;28;20459;-75
2022/06/17 07:50:41;;;;;;;4.93;2.50;;;21.80;68.40;;;;;;4965676;28;20022;-74
2022/06/17 07:53:08;;;;;;;4.15;2.50;;;21.90;67.90;;;;;;4979133;28;20147;-76
2022/06/17 07:55:34;;;;;;;5.20;2.97;;;21.90;67.80;;;;;;4968618;28;20093;-76
2022/06/17 07:58:00;;;;;;;4.60;2.55;;;21.90;67.80;;;;;;4967680;28;20030;-76
2022/06/17 08:00:35;;;;;;;6.35;2.80;;;21.90;68.20;;;;;;4962658;28;20026;-76
2022/06/17 08:03:01;;;;;;;8.70;2.80;;;21.90;67.70;;;;;;4961641;28;20476;-76
2022/06/17 08:05:28;;;;;;;4.15;2.70;;;21.90;67.70;;;;;;4964732;28;20361;-77
2022/06/17 08:07:55;;;;;;;6.50;2.78;;;21.90;67.90;;;;;;4956741;28;20026;-76
2022/06/17 08:10:24;;;;;;;5.80;2.60;;;21.90;67.40;;;;;;4978546;28;20117;-78
2022/06/17 08:12:49;;;;;;;4.78;2.70;;;22.00;66.90;;;;;;4972675;28;20034;-77
2022/06/17 08:15:15;;;;;;;3.13;2.22;;;22.10;66.60;;;;;;4979788;28;20032;-77
2022/06/17 08:17:41;;;;;;;4.55;2.40;;;22.20;67.10;;;;;;4967488;28;20023;-77
2022/06/17 08:20:14;;;;;;;4.50;2.58;;;22.30;67.60;;;;;;4968842;28;20031;-77
2022/06/17 08:22:41;;;;;;;7.13;2.57;;;22.30;66.70;;;;;;4970463;28;20022;-76
2022/06/17 08:25:07;;;;;;;3.55;2.78;;;22.40;65.80;;;;;;4962038;28;20114;-75
2022/06/17 08:27:39;;;;;;;4.57;2.20;;;22.40;65.90;;;;;;4968137;28;20117;-75
2022/06/17 08:30:06;;;;;;;5.55;2.28;;;22.40;66.30;;;;;;4965628;28;20050;-76
2022/06/17 08:32:48;;;;;;;4.05;2.50;;;22.40;66.30;;;;;;4965127;28;20408;-75
2022/06/17 08:35:18;;;;;;;4.78;2.58;;;22.40;66.80;;;;;;4981850;28;20494;-75
2022/06/17 08:37:45;;;;;;;3.58;2.60;;;22.40;67.00;;;;;;4964579;28;20101;-76
2022/06/17 08:40:48;;;;;;;10.32;2.72;;;22.40;67.10;;;;;;4969210;28;20027;-71
2022/06/17 08:43:32;;;;;;;3.90;2.30;;;22.50;66.70;;;;;;4964511;28;20031;-71
2022/06/17 08:46:16;;;;;;;4.40;2.47;;;22.60;67.40;;;;;;4960308;28;20041;-73
2022/06/17 08:49:26;;;;;;;4.85;2.80;;;22.70;67.80;;;;;;4964742;28;20035;-71
2022/06/17 08:51:58;;;;;;;5.93;2.65;;;22.90;67.50;;;;;;4966762;28;20400;-71
2022/06/17 08:54:37;;;;;;;4.55;2.30;;;22.90;67.40;;;;;;4965949;28;20031;-76
2022/06/17 08:57:41;;;;;;;3.75;2.75;;;23.10;66.40;;;;;;4969804;28;20501;-76
2022/06/17 09:00:16;;;;;;;5.35;2.63;;;23.10;65.30;;;;;;4922519;28;20125;-74
2022/06/17 09:02:49;;;;;;;3.78;2.30;;;23.20;65.50;;;;;;4961229;28;20396;-75
2022/06/17 09:05:40;;;;;;;3.45;2.40;;;23.20;65.30;;;;;;4966771;28;20027;-73
2022/06/17 09:08:40;;;;;;;3.58;2.17;;;23.30;65.00;;;;;;4971385;28;20030;-75
2022/06/17 09:11:20;;;;;;;4.28;2.33;;;23.30;64.20;;;;;;4951257;28;20127;-74
2022/06/17 09:14:27;;;;;;;3.50;2.28;;;23.30;63.90;;;;;;4977204;28;20022;-77
2022/06/17 09:17:20;;;;;;;3.35;2.30;;;23.20;64.10;;;;;;4974978;28;20484;-76
2022/06/17 09:19:48;;;;;;;5.15;2.50;;;23.20;63.50;;;;;;4958549;28;20493;-76
2022/06/17 09:22:45;;;;;;;5.60;2.03;;;23.20;63.40;;;;;;4966479;28;20031;-75
2022/06/17 09:25:16;;;;;;;3.35;2.22;;;23.30;63.80;;;;;;4961023;28;20076;-77
2022/06/17 09:27:46;;;;;;;5.50;2.45;;;23.30;63.90;;;;;;4962331;28;20027;-77
2022/06/17 09:30:19;;;;;;;2.40;2.20;;;23.30;63.20;;;;;;4956552;28;20039;-76
2022/06/17 09:32:53;;;;;;;;;;;23.30;62.90;;;;;;4964548;28;20148;-76
2022/06/17 09:35:28;;;;;;;4.90;2.30;;;23.40;63.50;;;;;;4961243;28;19909;-75
2022/06/17 09:37:59;;;;;;;4.07;2.20;;;23.50;63.10;;;;;;4964243;28;20027;-74
2022/06/17 09:40:40;;;;;;;4.47;2.45;;;23.50;62.80;;;;;;4961301;28;20023;-75
2022/06/17 09:43:35;;;;;;;3.83;2.13;;;23.60;63.20;;;;;;4963092;28;20027;-75
2022/06/17 09:46:04;;;;;;;5.28;2.38;;;23.60;62.80;;;;;;4960707;28;20492;-75
2022/06/17 09:48:32;;;;;;;9.93;2.33;;;23.60;63.20;;;;;;4966115;28;20373;-76
2022/06/17 09:51:08;;;;;;;3.50;2.38;;;23.60;62.00;;;;;;4967740;28;20026;-76
2022/06/17 09:53:47;;;;;;;2.58;2.08;;;23.60;61.80;;;;;;4967336;28;20488;-76
2022/06/17 09:56:17;;;;;;;2.80;2.33;;;23.70;61.10;;;;;;4963793;28;21452;-76
2022/06/17 09:58:51;;;;;;;4.35;2.17;;;23.70;61.60;;;;;;4954234;28;20034;-76
2022/06/17 10:01:19;;;;;;;3.70;2.50;;;23.80;62.20;;;;;;4963884;28;20037;-76
2022/06/17 10:03:45;;;;;;;4.47;1.80;;;23.80;61.90;;;;;;4970999;28;20090;-76
2022/06/17 10:06:31;;;;;;;3.33;2.38;;;23.80;62.10;;;;;;4962040;28;20027;-76
2022/06/17 10:09:18;;;;;;;6.00;2.25;;;23.80;62.10;;;;;;4960768;28;20031;-76
2022/06/17 10:11:59;;;;;;;5.78;2.72;;;23.90;61.50;;;;;;4956477;28;20031;-76
2022/06/17 10:14:46;;;;;;;2.63;1.80;;;24.00;61.10;;;;;;4958765;28;20027;-77
2022/06/17 10:20:23;;;;;;;2.22;1.85;;;24.00;60.00;;;;;;4956660;28;20046;-75
2022/06/17 10:23:08;;;;;;;3.00;2.05;;;24.00;59.40;;;;;;4961447;28;20019;-76
2022/06/17 10:25:53;;;;;;;4.78;2.35;;;24.10;59.00;;;;;;4979325;28;20030;-76
2022/06/17 10:28:46;;;;;;;4.22;2.20;;;24.10;56.90;;;;;;4962562;28;20022;-75
2022/06/17 10:31:29;;;;;;;5.65;1.85;;;24.10;57.70;;;;;;4956616;28;20081;-74
2022/06/17 10:33:57;;;;;;;3.08;1.92;;;24.10;58.00;;;;;;4965846;28;20166;-75
2022/06/17 10:36:22;;;;;;;3.88;2.40;;;24.10;58.10;;;;;;4958062;28;20113;-75
2022/06/17 10:38:48;;;;;;;3.50;2.28;;;24.10;58.30;;;;;;4962450;28;20181;-75
2022/06/17 10:41:16;;;;;;;3.75;1.83;;;24.20;57.60;;;;;;4958286;28;20306;-76
2022/06/17 10:43:49;;;;;;;2.50;1.90;;;24.30;57.10;;;;;;4958853;28;20046;-76
2022/06/17 10:46:24;;;;;;;2.17;1.77;;;24.30;56.50;;;;;;4957462;28;20384;-75
2022/06/17 10:49:26;;;;;;;3.20;1.77;;;24.40;56.50;;;;;;4957854;28;20039;-75
2022/06/17 10:51:54;;;;;;;2.85;1.70;;;24.50;56.10;;;;;;4944544;28;20046;-76
2022/06/17 10:54:29;;;;;;;4.93;1.40;;;24.60;55.80;;;;;;4963178;28;20357;-76
2022/06/17 10:57:02;;;;;;;2.20;1.60;;;24.70;55.80;;;;;;4961790;28;21477;-76
2022/06/17 10:59:38;;;;;;;1.67;1.50;;;24.90;55.20;;;;;;4975471;28;20030;-75
2022/06/17 11:02:04;;;;;;;4.50;1.67;;;25.00;55.80;;;;;;4966247;28;20111;-76
2022/06/17 11:04:36;;;;;;;2.92;1.73;;;24.90;56.10;;;;;;4977344;28;20477;-75
2022/06/17 11:07:14;;;;;;;2.38;1.85;;;25.00;55.90;;;;;;4960381;28;20037;-75
2022/06/17 11:09:52;;;;;;;2.30;1.70;;;25.00;55.70;;;;;;4971201;28;21314;-74
2022/06/17 11:12:25;;;;;;;4.20;2.10;;;25.00;55.10;;;;;;4968696;28;20121;-75
2022/06/17 11:14:57;;;;;;;2.90;2.33;;;25.00;55.30;;;;;;4973339;28;20089;-75
2022/06/17 11:17:44;;;;;;;2.38;1.60;;;25.00;54.70;;;;;;4965311;28;20062;-76
2022/06/17 11:20:16;;;;;;;3.08;1.73;;;24.90;54.30;;;;;;4974763;28;20027;-74
2022/06/17 11:22:52;;;;;;;1.48;1.27;;;24.90;54.50;;;;;;4971135;28;20468;-74
2022/06/17 11:25:34;;;;;;;3.88;1.73;;;24.90;54.00;;;;;;4961112;28;20614;-74
2022/06/17 11:28:11;;;;;;;2.85;1.77;;;25.00;55.10;;;;;;4961281;28;20038;-73
2022/06/17 11:30:54;;;;;;;2.22;1.20;;;25.00;54.40;;;;;;4958782;28;20439;-79
2022/06/17 11:33:54;;;;;;;2.67;1.70;;;24.90;53.70;;;;;;4969064;28;20043;-75
2022/06/17 11:36:31;;;;;;;2.42;1.60;;;24.90;53.80;;;;;;4981988;28;20026;-75
2022/06/17 11:39:04;;;;;;;1.92;1.50;;;25.00;53.30;;;;;;4975416;28;20030;-76
2022/06/17 11:41:32;;;;;;;2.27;1.30;;;25.10;54.30;;;;;;4970784;28;20022;-78
2022/06/17 11:44:11;;;;;;;4.05;1.80;;;25.20;54.20;;;;;;4974615;28;20042;-74
2022/06/17 11:46:52;;;;;;;1.73;1.27;;;25.20;52.80;;;;;;4966864;28;20026;-75
2022/06/17 11:49:19;;;;;;;3.25;1.52;;;25.20;52.80;;;;;;4975175;28;20027;-75
2022/06/17 11:52:00;;;;;;;2.90;1.40;;;25.10;53.00;;;;;;4971407;28;20039;-75
2022/06/17 11:54:49;;;;;;;1.65;1.38;;;25.10;53.70;;;;;;4973542;28;20621;-75
2022/06/17 11:57:29;;;;;;;5.07;1.40;;;25.20;53.00;;;;;;4965910;28;20118;-75
2022/06/17 11:59:58;;;;;;;3.03;1.75;;;25.10;53.10;;;;;;4969816;28;20034;-75
2022/06/17 12:02:24;;;;;;;2.55;1.70;;;25.20;52.60;;;;;;4969601;28;20020;-75
2022/06/17 12:04:51;;;;;;;5.03;1.30;;;25.20;53.30;;;;;;4976221;28;20169;-74
2022/06/17 12:08:01;;;;;;;1.60;1.30;;;25.20;53.40;;;;;;4967537;28;20053;-75
2022/06/17 12:10:39;;;;;;;2.22;1.15;;;25.30;53.40;;;;;;4949743;28;20423;-74
2022/06/17 12:13:31;;;;;;;2.20;1.10;;;25.30;52.40;;;;;;4971317;28;20031;-75
2022/06/17 12:16:22;;;;;;;4.18;1.40;;;25.30;52.40;;;;;;4984112;28;20034;-75
2022/06/17 12:19:00;;;;;;;4.30;1.52;;;25.30;52.00;;;;;;4969861;28;20030;-77
2022/06/17 12:21:44;;;;;;;3.53;1.30;;;25.40;51.50;;;;;;4969863;28;20023;-75
2022/06/17 12:24:31;;;;;;;2.15;1.33;;;25.50;51.30;;;;;;4969951;28;20034;-76
2022/06/17 12:27:34;;;;;;;4.53;1.38;;;25.60;49.90;;;;;;4960847;28;20143;-74
2022/06/17 12:30:04;;;;;;;2.65;0.98;;;25.70;48.70;;;;;;4950741;28;20383;-76
2022/06/17 12:33:03;;;;;;;2.20;1.17;;;25.70;48.30;;;;;;4960620;28;20033;-76
2022/06/17 12:35:35;;;;;;;9.40;1.15;;;25.70;48.40;;;;;;4960639;28;20237;-75
2022/06/17 12:38:03;;;;;;;4.07;1.10;;;25.70;48.30;;;;;;4963102;28;20566;-74
2022/06/17 12:40:45;;;;;;;2.08;1.35;;;25.80;48.20;;;;;;4963865;28;20019;-75
2022/06/17 12:43:31;;;;;;;1.55;1.08;;;25.70;48.40;;;;;;4963274;28;20073;-73
2022/06/17 12:46:22;;;;;;;1.40;1.10;;;25.80;47.70;;;;;;4975494;28;20459;-73
2022/06/17 12:53:13;;;;;;;4.38;0.80;;;25.80;48.20;;;;;;4957782;28;20106;-75
2022/06/17 12:55:08;;;;;;;3.67;1.30;;;25.80;48.20;;;;;;4961083;28;20435;-74
2022/06/17 12:57:34;;;;;;;3.67;1.13;;;25.90;48.00;;;;;;4958484;28;20147;-75
2022/06/17 13:00:12;;;;;;;1.63;1.00;;;26.00;47.60;;;;;;4962394;28;20318;-75
2022/06/17 13:03:08;;;;;;;1.02;0.90;;;26.00;48.00;;;;;;4965645;28;20031;-75
2022/06/17 13:05:41;;;;;;;0.82;0.80;;;26.00;47.30;;;;;;4957653;28;20030;-76
2022/06/17 13:08:25;;;;;;;3.35;1.13;;;26.00;47.60;;;;;;4970318;28;20027;-76
2022/06/17 13:11:09;;;;;;;1.30;0.90;;;26.00;46.80;;;;;;4962321;28;20531;-74
2022/06/17 13:13:56;;;;;;;2.83;1.13;;;25.90;46.20;;;;;;4963141;28;20502;-73
2022/06/17 13:16:28;;;;;;;1.27;1.00;;;26.00;46.10;;;;;;4953810;28;20035;-76
2022/06/17 13:19:24;;;;;;;1.08;0.80;;;25.90;46.50;;;;;;4963361;28;20041;-73
2022/06/17 13:22:03;;;;;;;2.05;0.70;;;25.90;46.10;;;;;;4959344;28;20088;-74
2022/06/17 13:24:48;;;;;;;1.67;0.82;;;25.90;45.90;;;;;;4954088;28;20026;-75
2022/06/17 13:27:34;;;;;;;3.60;0.70;;;25.90;45.50;;;;;;4956231;28;20038;-75
2022/06/17 13:30:06;;;;;;;1.35;0.80;;;26.10;46.40;;;;;;4962463;28;20050;-75
2022/06/17 13:32:31;;;;;;;1.42;0.70;;;26.10;45.70;;;;;;4965630;28;20500;-75
2022/06/17 13:35:12;;;;;;;1.83;0.70;;;26.10;45.90;;;;;;4956960;28;20042;-76
2022/06/17 13:38:06;;;;;;;2.22;1.00;;;26.20;44.60;;;;;;4972279;28;20395;-73